Accueil
METAR-TAF:

METAR-TAF

Aéroports :

Anvik, Alaska, États-Unis

latitude: 62-38-54N, longitude: 160-11-23W, altitude: 94 m

Observation

Le bulletin a été fait il y a 22 minutes, à 22:56 UTC
Vent 3 kt de ouest/sud-ouest
Température -18°C
Humidité 77%
Pression 1008 hPa
Visibilité: 14.5 km
Ciel couvert à une hauteur de 800 ft
neige faible

METAR: PANV 222256Z AUTO 24003KT 9SM -SN OVC008 M18/M21 A2978 RMK AO2 SLP239 P0000 T11831206 FZRANO TSNO

Heure: 14:18 (23:18 UTC)


TAF: absent

Observations et prévisions météorologiques de plus de 4000 aéroports (messages METAR et TAF).

Les stations disponibles sont représentées par des disques jaunes et rouges sur la carte.

Passer la souris dessus pour voir le nom de la station.

Cliquer dessus pour voir les observations et prévisions météorologiques.

Pour changer de carte: cliquez sur les boutons verts avec une croix noire pour zoomer, sur le bouton vert avec un tiret pour effectuer un zoom arrière, ou sur les flèches vertes pour les cartes adjacentes.


METAR-TAF: